createdAt,value
2019-05-12T00:01:10.689Z,14.30
2019-05-12T00:03:45.149Z,9.13
2019-05-12T00:06:17.776Z,10.75
2019-05-12T00:08:50.331Z,8.13
2019-05-12T00:11:22.319Z,11.10
2019-05-12T00:13:54.445Z,9.53
2019-05-12T00:16:28.389Z,11.28
2019-05-12T00:19:01.061Z,8.38
2019-05-12T00:21:32.968Z,10.85
2019-05-12T00:24:14.254Z,11.63
2019-05-12T00:26:47.749Z,10.30
2019-05-12T00:29:20.077Z,8.10
2019-05-12T00:31:52.056Z,9.13
2019-05-12T00:34:25.629Z,12.33
2019-05-12T00:36:57.801Z,8.70
2019-05-12T00:39:31.353Z,8.18
2019-05-12T00:42:04.261Z,10.43
2019-05-12T00:44:39.067Z,10.25
2019-05-12T00:47:11.063Z,11.57
2019-05-12T00:49:43.410Z,10.63
2019-05-12T00:52:15.275Z,15.95
2019-05-12T00:54:48.273Z,10.88
2019-05-12T00:57:20.267Z,11.70
2019-05-12T00:59:52.965Z,7.92
2019-05-12T01:02:25.011Z,7.47
2019-05-12T01:04:58.138Z,8.83
2019-05-12T01:07:30.106Z,11.53
2019-05-12T01:10:05.046Z,10.15
2019-05-12T01:12:38.308Z,9.98
2019-05-12T01:15:10.649Z,9.98
2019-05-12T01:17:43.024Z,13.40
2019-05-12T01:20:18.016Z,11.30
2019-05-12T01:22:50.610Z,12.07
2019-05-12T01:25:22.982Z,12.78
2019-05-12T01:27:55.029Z,12.35
2019-05-12T01:30:28.422Z,10.30
2019-05-12T01:33:00.945Z,11.10
2019-05-12T01:35:33.199Z,9.30
2019-05-12T01:38:07.784Z,9.15
2019-05-12T01:40:41.456Z,11.25
2019-05-12T01:43:13.608Z,13.88
2019-05-12T01:45:48.247Z,8.83
2019-05-12T01:48:19.994Z,7.22
2019-05-12T01:50:51.917Z,11.57
2019-05-12T01:53:23.913Z,10.28
2019-05-12T01:55:55.866Z,10.53
2019-05-12T01:58:27.988Z,10.18
2019-05-12T02:01:02.950Z,10.15
2019-05-12T02:03:34.073Z,9.93
2019-05-12T02:06:08.269Z,10.93
2019-05-12T02:08:47.740Z,9.08
2019-05-12T02:11:34.693Z,9.28
2019-05-12T02:14:09.173Z,7.87
2019-05-12T02:16:40.519Z,14.28
2019-05-12T02:19:13.029Z,11.78
2019-05-12T02:21:48.831Z,8.88
2019-05-12T02:24:27.121Z,11.35
2019-05-12T02:27:01.459Z,13.50
2019-05-12T02:29:39.381Z,11.08
2019-05-12T02:32:13.050Z,15.30
2019-05-12T02:34:48.751Z,10.30
2019-05-12T02:37:20.659Z,10.50
2019-05-12T02:39:55.573Z,11.20
2019-05-12T02:42:27.117Z,10.28
2019-05-12T02:44:59.037Z,12.05
2019-05-12T02:47:30.917Z,14.60
2019-05-12T02:50:05.329Z,8.63
2019-05-12T02:52:36.720Z,10.93
2019-05-12T02:55:08.875Z,13.32
2019-05-12T02:57:45.341Z,11.20
2019-05-12T03:00:17.565Z,9.18
2019-05-12T03:02:54.601Z,10.03
2019-05-12T03:05:25.274Z,12.30
2019-05-12T03:07:58.328Z,10.82
2019-05-12T03:10:30.206Z,11.30
2019-05-12T03:13:04.289Z,11.83
2019-05-12T03:15:37.425Z,18.35
2019-05-12T03:18:14.340Z,7.78
2019-05-12T03:20:46.726Z,8.30
2019-05-12T03:23:19.478Z,8.83
2019-05-12T03:25:54.822Z,11.40
2019-05-12T03:28:27.266Z,10.35
2019-05-12T03:31:01.042Z,8.50
2019-05-12T03:33:42.757Z,7.67
2019-05-12T03:36:10.195Z,6.75
2019-05-12T03:38:44.708Z,6.85
2019-05-12T03:41:15.971Z,8.75
2019-05-12T03:43:48.067Z,6.30
2019-05-12T03:46:19.966Z,5.70
2019-05-12T03:48:55.379Z,6.10
2019-05-12T03:51:29.045Z,5.85
2019-05-12T03:54:04.420Z,10.53
2019-05-12T03:56:35.329Z,9.23
2019-05-12T03:59:08.554Z,7.50
2019-05-12T04:01:41.072Z,6.60
2019-05-12T04:04:15.177Z,8.78
2019-05-12T04:06:49.881Z,5.37
2019-05-12T04:09:24.621Z,7.90
2019-05-12T04:11:56.512Z,6.40
2019-05-12T04:14:28.499Z,6.75
2019-05-12T04:17:00.967Z,8.83
2019-05-12T04:19:36.110Z,8.85
2019-05-12T04:22:11.442Z,8.90
2019-05-12T04:24:49.870Z,7.22
2019-05-12T04:27:24.998Z,8.55
2019-05-12T04:29:58.612Z,6.15
2019-05-12T04:32:35.812Z,7.33
2019-05-12T04:35:07.524Z,9.63
2019-05-12T04:37:40.532Z,11.38
2019-05-12T04:40:16.766Z,7.87
2019-05-12T04:42:48.785Z,9.23
2019-05-12T04:45:25.499Z,6.92
2019-05-12T04:47:57.619Z,4.97
2019-05-12T04:50:30.089Z,7.65
2019-05-12T04:53:05.750Z,5.97
2019-05-12T04:55:36.782Z,5.58
2019-05-12T04:58:08.802Z,5.58
2019-05-12T05:00:40.823Z,7.22
2019-05-12T05:03:14.106Z,5.87
2019-05-12T05:05:46.392Z,5.65
2019-05-12T05:08:19.831Z,8.05
2019-05-12T05:10:54.646Z,6.45
2019-05-12T05:13:26.214Z,4.10
2019-05-12T05:15:58.195Z,5.72
2019-05-12T05:18:30.336Z,9.20
2019-05-12T05:21:04.529Z,3.17
2019-05-12T05:23:38.448Z,4.03
2019-05-12T05:26:24.235Z,3.92
2019-05-12T05:28:43.971Z,3.10
2019-05-12T05:31:17.649Z,8.15
2019-05-12T05:33:50.279Z,4.67
2019-05-12T05:36:22.168Z,5.55
2019-05-12T05:38:57.352Z,4.45
2019-05-12T05:41:27.587Z,6.58
2019-05-12T05:43:59.424Z,4.08
2019-05-12T05:46:33.450Z,8.98
2019-05-12T05:49:04.883Z,2.10
2019-05-12T05:51:39.588Z,3.98
2019-05-12T05:54:10.644Z,4.35
2019-05-12T05:56:50.690Z,7.72
2019-05-12T05:59:16.205Z,6.80
2019-05-12T06:01:51.945Z,3.62
2019-05-12T06:04:23.768Z,2.77
2019-05-12T06:06:56.120Z,3.52
2019-05-12T06:09:29.174Z,3.17
2019-05-12T06:12:07.535Z,3.40
2019-05-12T06:14:36.352Z,1.98
2019-05-12T06:17:08.213Z,6.15
2019-05-12T06:19:40.182Z,1.27
2019-05-12T06:22:15.054Z,2.90
2019-05-12T06:24:49.104Z,1.95
2019-05-12T06:27:24.265Z,2.33
2019-05-12T06:30:00.806Z,4.58
2019-05-12T06:32:30.025Z,2.80
2019-05-12T06:35:04.477Z,4.60
2019-05-12T06:37:36.430Z,5.42
2019-05-12T06:40:09.221Z,1.45
2019-05-12T06:42:43.572Z,2.30
2019-05-12T06:45:15.206Z,1.65
2019-05-12T06:47:49.670Z,1.55
2019-05-12T06:50:23.740Z,3.45
2019-05-12T06:52:56.262Z,4.22
2019-05-12T06:55:39.442Z,4.15
2019-05-12T06:58:13.968Z,2.25
2019-05-12T07:00:47.399Z,2.90
2019-05-12T07:03:25.784Z,3.85
2019-05-12T07:05:55.204Z,2.70
2019-05-12T07:08:32.775Z,2.20
2019-05-12T07:11:08.429Z,2.65
2019-05-12T07:13:43.593Z,5.30
2019-05-12T07:16:22.910Z,0.88
2019-05-12T07:18:54.028Z,3.75
2019-05-12T07:21:34.477Z,2.27
2019-05-12T07:24:10.906Z,1.77
2019-05-12T07:26:39.980Z,0.90
2019-05-12T07:29:13.419Z,2.58
2019-05-12T07:31:47.095Z,4.25
2019-05-12T07:34:19.125Z,1.37
2019-05-12T07:36:53.791Z,3.52
2019-05-12T07:39:26.263Z,0.90
2019-05-12T07:42:03.482Z,0.93
2019-05-12T07:44:40.037Z,1.35
2019-05-12T07:47:10.212Z,3.60
2019-05-12T07:49:44.118Z,1.67
2019-05-12T07:52:15.735Z,1.22
2019-05-12T07:54:52.598Z,2.70
2019-05-12T07:57:27.920Z,2.15
2019-05-12T08:00:03.647Z,1.10
2019-05-12T08:02:35.891Z,0.55
2019-05-12T08:05:10.982Z,0.75
2019-05-12T08:07:43.827Z,0.70
2019-05-12T08:10:19.843Z,3.72
2019-05-12T08:12:51.089Z,0.68
2019-05-12T08:15:25.414Z,1.55
2019-05-12T08:17:59.711Z,0.72
2019-05-12T08:20:34.061Z,1.45
2019-05-12T08:23:10.353Z,1.02
2019-05-12T08:25:40.040Z,0.57
2019-05-12T08:28:18.069Z,4.58
2019-05-12T08:30:50.563Z,1.87
2019-05-12T08:33:19.235Z,3.50
2019-05-12T08:35:55.175Z,4.40
2019-05-12T08:38:29.024Z,4.92
2019-05-12T08:41:05.350Z,6.80
2019-05-12T08:43:40.446Z,3.35
2019-05-12T08:46:15.525Z,3.80
2019-05-12T08:48:51.647Z,2.80
2019-05-12T08:51:20.333Z,2.08
2019-05-12T08:53:56.219Z,3.08
2019-05-12T08:56:26.321Z,1.35
2019-05-12T08:59:01.136Z,3.92
2019-05-12T09:01:34.392Z,2.90
2019-05-12T09:04:13.134Z,1.90
2019-05-12T09:06:43.422Z,1.17
2019-05-12T09:09:14.980Z,2.15
2019-05-12T09:11:46.932Z,1.80
2019-05-12T09:14:18.864Z,0.80
2019-05-12T09:16:55.952Z,2.70
2019-05-12T09:19:27.101Z,2.65
2019-05-12T09:21:58.447Z,1.67
2019-05-12T09:24:33.371Z,1.47
2019-05-12T09:27:08.870Z,2.25
2019-05-12T09:29:38.941Z,1.77
2019-05-12T09:32:15.478Z,4.05
2019-05-12T09:34:53.061Z,1.77
2019-05-12T09:37:21.169Z,1.02
2019-05-12T09:39:53.816Z,3.98
2019-05-12T09:42:29.929Z,2.30
2019-05-12T09:45:00.028Z,1.47
2019-05-12T09:47:34.333Z,1.75
2019-05-12T09:50:09.727Z,1.82
2019-05-12T09:52:41.175Z,2.75
2019-05-12T09:55:14.758Z,1.45
2019-05-12T09:57:48.642Z,2.87
2019-05-12T10:00:23.946Z,1.98
2019-05-12T10:02:59.553Z,4.08
2019-05-12T10:05:30.422Z,1.77
2019-05-12T10:08:04.907Z,5.10
2019-05-12T10:10:40.339Z,3.70
2019-05-12T10:13:13.829Z,2.72
2019-05-12T10:18:52.753Z,1.98
2019-05-12T10:21:36.580Z,3.98
2019-05-12T10:24:20.350Z,1.30
2019-05-12T10:26:55.732Z,2.17
2019-05-12T10:29:32.431Z,1.45
2019-05-12T10:32:13.409Z,0.72
2019-05-12T10:34:56.313Z,1.45
2019-05-12T10:40:24.979Z,3.90
2019-05-12T10:43:08.301Z,4.50
2019-05-12T10:45:40.248Z,0.90
2019-05-12T10:48:37.432Z,1.92
2019-05-12T10:51:13.465Z,1.98
2019-05-12T10:53:59.881Z,4.45
2019-05-12T10:56:28.348Z,2.20
2019-05-12T10:59:08.894Z,1.07
2019-05-12T11:01:47.215Z,3.27
2019-05-12T11:04:35.867Z,5.87
2019-05-12T11:07:00.694Z,1.80
2019-05-12T11:09:34.502Z,2.08
2019-05-12T11:12:08.383Z,1.60
2019-05-12T11:14:40.654Z,16.00
2019-05-12T11:17:13.774Z,8.48
2019-05-12T11:19:50.063Z,8.78
2019-05-12T11:22:19.958Z,13.25
2019-05-12T11:24:56.453Z,3.02
2019-05-12T11:27:29.209Z,3.52
2019-05-12T11:30:01.246Z,3.42
2019-05-12T11:32:37.892Z,1.30
2019-05-12T11:35:10.695Z,1.45
2019-05-12T11:37:42.763Z,4.05
2019-05-12T11:40:16.228Z,0.90
2019-05-12T11:42:59.118Z,1.80
2019-05-12T11:45:24.038Z,0.90
2019-05-12T11:47:56.924Z,1.15
2019-05-12T11:50:29.155Z,2.20
2019-05-12T11:53:01.118Z,1.07
2019-05-12T11:55:45.960Z,2.77
2019-05-12T11:58:17.974Z,0.60
2019-05-12T12:00:53.330Z,2.33
2019-05-12T12:03:29.639Z,2.27
2019-05-12T12:06:01.603Z,2.55
2019-05-12T12:08:37.073Z,2.60
2019-05-12T12:11:10.648Z,0.93
2019-05-12T12:13:40.959Z,4.83
2019-05-12T12:16:14.131Z,1.85
2019-05-12T12:18:49.743Z,1.10
2019-05-12T12:21:19.778Z,0.78
2019-05-12T12:23:53.435Z,0.70
2019-05-12T12:26:30.431Z,3.62
2019-05-12T12:29:03.184Z,2.08
2019-05-12T12:31:54.409Z,1.60
2019-05-12T12:34:30.149Z,1.20
2019-05-12T12:36:59.946Z,1.40
2019-05-12T12:39:31.854Z,1.70
2019-05-12T12:42:04.486Z,2.55
2019-05-12T12:44:38.104Z,1.47
2019-05-12T12:47:10.049Z,0.88
2019-05-12T12:49:45.277Z,1.87
2019-05-12T12:52:16.346Z,0.37
2019-05-12T12:54:48.285Z,5.90
2019-05-12T12:57:20.305Z,2.50
2019-05-12T12:59:55.023Z,1.70
2019-05-12T13:02:26.946Z,4.03
2019-05-12T13:05:00.607Z,1.25
2019-05-12T13:07:33.415Z,1.17
2019-05-12T13:10:09.430Z,1.30
2019-05-12T13:12:40.439Z,1.10
2019-05-12T13:15:14.515Z,0.98
2019-05-12T13:17:47.571Z,0.78
2019-05-12T13:20:21.029Z,0.45
2019-05-12T13:22:53.686Z,0.45
2019-05-12T13:25:25.724Z,2.47
2019-05-12T13:28:01.454Z,3.00
2019-05-12T13:30:45.088Z,1.45
2019-05-12T13:33:08.987Z,1.42
2019-05-12T13:35:39.628Z,1.27
2019-05-12T13:38:11.572Z,1.40
2019-05-12T13:40:47.306Z,0.88
2019-05-12T13:43:24.219Z,0.30
2019-05-12T13:46:00.143Z,2.10
2019-05-12T13:48:33.059Z,1.32
2019-05-12T13:51:12.146Z,1.32
2019-05-12T13:53:46.354Z,0.50
2019-05-12T13:56:19.413Z,0.90
2019-05-12T13:58:54.189Z,0.42
2019-05-12T14:01:26.194Z,0.60
2019-05-12T14:03:58.286Z,0.78
2019-05-12T14:06:35.582Z,1.07
2019-05-12T14:09:07.010Z,2.20
2019-05-12T14:11:39.072Z,1.22
2019-05-12T14:14:15.216Z,0.30
2019-05-12T14:16:53.578Z,2.15
2019-05-12T14:19:20.328Z,1.30
2019-05-12T14:21:54.321Z,1.22
2019-05-12T14:24:26.560Z,0.82
2019-05-12T14:26:58.457Z,1.10
2019-05-12T14:29:30.764Z,0.85
2019-05-12T14:32:05.367Z,1.25
2019-05-12T14:34:37.531Z,1.57
2019-05-12T14:37:17.545Z,0.90
2019-05-12T14:39:53.731Z,0.72
2019-05-12T14:42:33.895Z,3.55
2019-05-12T14:44:59.306Z,1.32
2019-05-12T14:47:31.289Z,1.35
2019-05-12T14:50:08.605Z,0.53
2019-05-12T14:52:41.083Z,1.05
2019-05-12T14:55:13.939Z,3.12
2019-05-12T14:57:46.053Z,1.87
2019-05-12T15:00:21.213Z,1.42
2019-05-12T15:02:53.968Z,2.50
2019-05-12T15:05:27.692Z,0.33
2019-05-12T15:08:00.542Z,1.25
2019-05-12T15:10:34.919Z,0.90
2019-05-12T15:13:06.972Z,1.62
2019-05-12T15:15:43.938Z,1.17
2019-05-12T15:18:16.035Z,0.80
2019-05-12T15:20:51.456Z,2.20
2019-05-12T15:23:32.458Z,0.45
2019-05-12T15:26:09.225Z,0.68
2019-05-12T15:28:38.015Z,0.85
2019-05-12T15:31:13.737Z,1.17
2019-05-12T15:33:45.242Z,2.12
2019-05-12T15:36:17.166Z,3.70
2019-05-12T15:38:55.725Z,0.68
2019-05-12T15:41:26.557Z,1.10
2019-05-12T15:43:58.947Z,1.20
2019-05-12T15:46:34.609Z,1.12
2019-05-12T15:49:08.640Z,1.27
2019-05-12T15:51:51.243Z,1.10
2019-05-12T15:54:14.667Z,1.65
2019-05-12T15:56:46.723Z,2.10
2019-05-12T15:59:18.742Z,1.62
2019-05-12T16:01:53.307Z,0.62
2019-05-12T16:04:27.000Z,2.10
2019-05-12T16:06:59.986Z,2.58
2019-05-12T16:09:34.192Z,1.65
2019-05-12T16:12:18.712Z,0.40
2019-05-12T16:14:41.241Z,2.05
2019-05-12T16:17:16.816Z,0.78
2019-05-12T16:19:50.327Z,0.72
2019-05-12T16:22:30.600Z,1.07
2019-05-12T16:25:04.324Z,2.42
2019-05-12T16:27:39.525Z,3.20
2019-05-12T16:30:13.767Z,0.60
2019-05-12T16:32:47.885Z,0.95
2019-05-12T16:35:26.395Z,1.02
2019-05-12T16:37:53.944Z,1.22
2019-05-12T16:40:27.471Z,3.05
2019-05-12T16:43:00.170Z,0.68
2019-05-12T16:45:34.043Z,2.37
2019-05-12T16:48:28.581Z,1.98
2019-05-12T16:50:46.910Z,0.95
2019-05-12T16:53:38.476Z,0.50
2019-05-12T16:56:11.677Z,1.90
2019-05-12T16:58:48.635Z,1.15
2019-05-12T17:01:29.270Z,2.15
2019-05-12T17:04:04.377Z,0.68
2019-05-12T17:06:47.162Z,3.25
2019-05-12T17:09:26.785Z,0.53
2019-05-12T17:12:00.863Z,1.10
2019-05-12T17:14:49.895Z,0.40
2019-05-12T17:17:21.250Z,0.47
2019-05-12T17:20:08.964Z,0.65
2019-05-12T17:22:54.608Z,1.50
2019-05-12T17:25:26.181Z,0.45
2019-05-12T17:28:03.619Z,1.30
2019-05-12T17:30:43.543Z,1.40
2019-05-12T17:33:22.445Z,2.05
2019-05-12T17:36:11.926Z,1.35
2019-05-12T17:42:33.615Z,1.92
2019-05-12T17:45:39.722Z,0.50
2019-05-12T17:48:15.794Z,0.80
2019-05-12T17:51:08.155Z,2.70
2019-05-12T17:53:44.676Z,0.68
2019-05-12T17:56:25.138Z,0.68
2019-05-12T17:58:55.125Z,2.83
2019-05-12T18:01:35.518Z,3.92
2019-05-12T18:04:10.426Z,3.70
2019-05-12T18:06:46.107Z,0.60
2019-05-12T18:09:23.631Z,0.70
2019-05-12T18:11:56.376Z,1.15
2019-05-12T18:14:30.873Z,2.15
2019-05-12T18:17:14.343Z,1.85
2019-05-12T18:19:58.988Z,2.60
2019-05-12T18:22:33.841Z,3.42
2019-05-12T18:25:09.215Z,0.93
2019-05-12T18:27:44.505Z,1.98
2019-05-12T18:30:23.794Z,1.92
2019-05-12T18:33:08.675Z,2.83
2019-05-12T18:35:47.985Z,4.15
2019-05-12T18:38:23.929Z,1.60
2019-05-12T18:40:55.765Z,1.90
2019-05-12T18:43:28.575Z,3.20
2019-05-12T18:46:08.725Z,1.80
2019-05-12T18:48:41.588Z,1.62
2019-05-12T18:51:18.995Z,2.02
2019-05-12T18:54:03.763Z,0.68
2019-05-12T18:56:36.764Z,0.90
2019-05-12T18:59:16.369Z,0.80
2019-05-12T19:01:47.733Z,1.72
2019-05-12T19:04:23.666Z,3.42
2019-05-12T19:07:15.311Z,2.33
2019-05-12T19:09:47.425Z,2.08
2019-05-12T19:12:21.595Z,1.00
2019-05-12T19:14:55.768Z,1.52
2019-05-12T19:17:36.576Z,0.80
2019-05-12T19:20:09.667Z,5.45
2019-05-12T19:22:59.794Z,4.83
2019-05-12T19:25:35.416Z,2.92
2019-05-12T19:28:24.896Z,2.27
2019-05-12T19:31:06.227Z,1.42
2019-05-12T19:34:15.694Z,1.47
2019-05-12T19:36:36.001Z,3.55
2019-05-12T19:39:09.187Z,5.25
2019-05-12T19:41:55.681Z,6.25
2019-05-12T19:44:36.864Z,6.58
2019-05-12T19:47:09.134Z,2.85
2019-05-12T19:49:49.913Z,6.28
2019-05-12T19:52:57.687Z,2.47
2019-05-12T19:55:33.619Z,2.10
2019-05-12T19:58:53.680Z,4.28
2019-05-12T20:01:00.901Z,5.33
2019-05-12T20:03:33.638Z,3.65
2019-05-12T20:06:33.738Z,6.70
2019-05-12T20:09:10.942Z,5.80
2019-05-12T20:11:54.966Z,25.97
2019-05-12T20:14:46.051Z,11.95
2019-05-12T20:17:20.226Z,6.62
2019-05-12T20:23:14.160Z,5.33
2019-05-12T20:25:59.285Z,3.27
2019-05-12T20:28:31.327Z,9.38
2019-05-12T20:31:08.530Z,6.17
2019-05-12T20:33:40.595Z,5.22
2019-05-12T20:36:20.678Z,4.28
2019-05-12T20:38:53.931Z,4.53
2019-05-12T20:41:30.143Z,3.52
2019-05-12T20:44:02.344Z,3.98
2019-05-12T20:46:39.084Z,5.87
2019-05-12T20:49:12.618Z,3.50
2019-05-12T20:51:56.838Z,5.50
2019-05-12T20:54:24.933Z,4.95
2019-05-12T20:57:02.658Z,3.75
2019-05-12T20:59:34.295Z,4.85
2019-05-12T21:02:07.859Z,3.27
2019-05-12T21:04:39.779Z,2.83
2019-05-12T21:07:28.280Z,4.47
2019-05-12T21:10:04.205Z,4.97
2019-05-12T21:12:39.974Z,4.90
2019-05-12T21:15:20.326Z,3.65
2019-05-12T21:18:06.621Z,6.95
2019-05-12T21:20:33.698Z,4.70
2019-05-12T21:23:24.545Z,5.12
2019-05-12T21:26:17.317Z,5.55
2019-05-12T21:28:49.244Z,9.40
2019-05-12T21:31:30.953Z,4.08
2019-05-12T21:34:37.908Z,6.00
2019-05-12T21:37:17.118Z,5.40
2019-05-12T21:42:34.437Z,4.08
2019-05-12T21:45:30.870Z,4.60
2019-05-12T21:49:10.349Z,4.28
2019-05-12T21:52:19.437Z,2.55
2019-05-12T21:54:58.382Z,3.75
2019-05-12T21:57:43.781Z,7.00
2019-05-12T22:00:25.008Z,3.22
2019-05-12T22:03:02.516Z,5.58
2019-05-12T22:05:48.088Z,7.72
2019-05-12T22:08:17.310Z,7.30
2019-05-12T22:10:43.713Z,4.10
2019-05-12T22:13:18.147Z,4.37
2019-05-12T22:15:56.879Z,8.18
2019-05-12T22:18:27.135Z,7.58
2019-05-12T22:21:01.462Z,8.18
2019-05-12T22:23:33.869Z,5.30
2019-05-12T22:26:07.350Z,8.93
2019-05-12T22:28:40.402Z,6.53
2019-05-12T22:31:13.862Z,4.08
2019-05-12T22:33:52.060Z,4.00
2019-05-12T22:36:25.762Z,7.17
2019-05-12T22:39:00.551Z,4.53
2019-05-12T22:41:30.408Z,5.03
2019-05-12T22:44:02.013Z,3.75
2019-05-12T22:46:35.797Z,3.52
2019-05-12T22:49:10.399Z,4.22
2019-05-12T22:51:43.633Z,5.78
2019-05-12T22:54:16.144Z,4.87
2019-05-12T22:56:49.586Z,3.08
2019-05-12T22:59:24.079Z,4.55
2019-05-12T23:01:58.239Z,5.62
2019-05-12T23:04:35.532Z,3.95
2019-05-12T23:07:06.315Z,5.58
2019-05-12T23:09:38.259Z,4.60
2019-05-12T23:12:18.561Z,6.33
2019-05-12T23:14:44.442Z,2.85
2019-05-12T23:17:17.505Z,4.83
2019-05-12T23:19:51.747Z,6.00
2019-05-12T23:22:23.698Z,8.05
2019-05-12T23:24:55.709Z,4.22
2019-05-12T23:27:30.106Z,2.17
2019-05-12T23:30:10.883Z,1.98
2019-05-12T23:32:45.262Z,6.70
2019-05-12T23:35:14.277Z,4.08
2019-05-12T23:37:46.825Z,1.82
2019-05-12T23:40:18.988Z,3.85
2019-05-12T23:42:53.446Z,1.77
2019-05-12T23:45:24.551Z,3.87
2019-05-12T23:47:56.514Z,4.70
2019-05-12T23:50:28.468Z,3.27
2019-05-12T23:53:00.401Z,2.85
2019-05-12T23:55:35.019Z,2.40
2019-05-12T23:58:06.783Z,3.87
